createdAt,value
2023-02-11T00:04:55.134Z,5.00
2023-02-11T00:09:58.021Z,4.70
2023-02-11T00:15:00.875Z,8.02
2023-02-11T00:20:05.471Z,7.46
2023-02-11T00:25:10.229Z,5.52
2023-02-11T00:30:13.403Z,4.43
2023-02-11T00:35:16.612Z,3.87
2023-02-11T00:40:20.059Z,6.61
2023-02-11T00:45:22.884Z,8.24
2023-02-11T00:50:25.808Z,6.17
2023-02-11T00:55:28.590Z,4.89
2023-02-11T01:00:31.427Z,4.09
2023-02-11T01:05:34.559Z,4.92
2023-02-11T01:10:37.390Z,8.36
2023-02-11T01:15:40.291Z,7.44
2023-02-11T01:20:43.273Z,5.64
2023-02-11T01:25:46.649Z,4.64
2023-02-11T01:30:49.619Z,3.98
2023-02-11T01:35:53.187Z,4.84
2023-02-11T01:40:58.393Z,8.38
2023-02-11T01:46:19.375Z,7.39
2023-02-11T01:51:29.866Z,5.60
2023-02-11T01:56:55.574Z,4.64
2023-02-11T02:02:04.818Z,3.92
2023-02-11T02:07:16.601Z,5.77
2023-02-11T02:12:19.506Z,8.01
2023-02-11T02:17:38.122Z,6.14
2023-02-11T02:23:02.847Z,4.77
2023-02-11T02:29:17.809Z,4.13
2023-02-11T02:34:52.316Z,7.75
2023-02-11T02:39:55.616Z,7.13
2023-02-11T02:44:58.763Z,5.42
2023-02-11T02:50:01.877Z,4.41
2023-02-11T02:55:25.832Z,3.75
2023-02-11T03:00:45.016Z,6.23
2023-02-11T03:06:11.375Z,7.47
2023-02-11T03:11:18.520Z,5.45
2023-02-11T03:16:26.389Z,4.35
2023-02-11T03:21:32.614Z,3.70
2023-02-11T03:26:50.127Z,4.24
2023-02-11T03:32:16.335Z,7.74
2023-02-11T03:37:49.527Z,6.37
2023-02-11T03:43:22.856Z,4.78
2023-02-11T03:48:31.997Z,3.93
2023-02-11T03:53:36.502Z,3.41
2023-02-11T03:58:39.331Z,4.55
2023-02-11T04:03:42.414Z,7.73
2023-02-11T04:08:45.266Z,6.17
2023-02-11T04:13:48.132Z,4.74
2023-02-11T04:18:50.995Z,3.97
2023-02-11T04:23:53.808Z,3.48
2023-02-11T04:28:56.608Z,5.66
2023-02-11T04:33:59.472Z,7.37
2023-02-11T04:39:02.385Z,5.50
2023-02-11T04:44:05.691Z,4.36
2023-02-11T04:49:08.524Z,3.67
2023-02-11T04:54:11.844Z,5.53
2023-02-11T04:59:14.760Z,7.29
2023-02-11T05:04:17.698Z,5.42
2023-02-11T05:09:20.579Z,4.23
2023-02-11T05:14:23.386Z,3.49
2023-02-11T05:19:26.260Z,3.67
2023-02-11T05:24:29.134Z,7.27
2023-02-11T05:29:32.134Z,6.87
2023-02-11T05:34:36.396Z,5.01
2023-02-11T05:39:39.242Z,3.92
2023-02-11T05:44:42.071Z,3.21
2023-02-11T05:49:44.888Z,3.90
2023-02-11T05:54:47.910Z,7.17
2023-02-11T05:59:50.764Z,5.95
2023-02-11T06:04:53.562Z,4.37
2023-02-11T06:09:56.440Z,3.42
2023-02-11T06:14:59.270Z,3.18
2023-02-11T06:20:03.789Z,6.39
2023-02-11T06:25:07.018Z,6.11
2023-02-11T06:30:10.941Z,4.38
2023-02-11T06:35:14.698Z,3.43
2023-02-11T06:40:17.657Z,2.81
2023-02-11T06:45:20.697Z,2.71
2023-02-11T06:50:23.521Z,6.31
2023-02-11T06:55:26.890Z,6.59
2023-02-11T07:00:29.833Z,4.78
2023-02-11T07:05:34.260Z,3.74
2023-02-11T07:10:37.182Z,3.17
2023-02-11T07:15:40.001Z,2.80
2023-02-11T07:20:43.454Z,2.76
2023-02-11T07:25:46.309Z,6.26
2023-02-11T07:30:49.178Z,6.93
2023-02-11T07:35:52.520Z,5.10
2023-02-11T07:40:55.465Z,4.14
2023-02-11T07:45:58.875Z,3.61
2023-02-11T07:51:14.590Z,3.29
2023-02-11T07:56:19.309Z,3.24
2023-02-11T08:01:28.266Z,6.57
2023-02-11T08:06:34.253Z,7.00
2023-02-11T08:11:37.124Z,5.36
2023-02-11T08:16:40.830Z,4.53
2023-02-11T08:21:44.429Z,4.13
2023-02-11T08:26:47.236Z,3.83
2023-02-11T08:31:50.165Z,3.65
2023-02-11T08:36:54.426Z,6.29
2023-02-11T08:41:57.265Z,7.88
2023-02-11T08:47:00.124Z,5.99
2023-02-11T08:52:04.293Z,4.85
2023-02-11T08:57:07.617Z,4.20
2023-02-11T09:02:14.673Z,3.90
2023-02-11T09:07:17.804Z,6.90
2023-02-11T09:12:20.589Z,7.64
2023-02-11T09:17:23.456Z,5.96
2023-02-11T09:22:26.252Z,5.05
2023-02-11T09:27:29.053Z,4.46
2023-02-11T09:32:31.927Z,5.48
2023-02-11T09:37:37.218Z,8.53
2023-02-11T09:43:09.074Z,6.88
2023-02-11T09:48:19.168Z,5.52
2023-02-11T09:53:31.438Z,4.76
2023-02-11T09:58:37.279Z,6.85
2023-02-11T10:03:55.307Z,8.57
2023-02-11T10:09:10.808Z,6.65
2023-02-11T10:14:28.496Z,5.58
2023-02-11T10:19:38.842Z,4.98
2023-02-11T10:24:50.325Z,7.62
2023-02-11T10:30:30.207Z,8.63
2023-02-11T10:35:33.327Z,6.53
2023-02-11T10:40:36.206Z,5.49
2023-02-11T10:46:02.514Z,4.79
2023-02-11T10:51:23.694Z,6.73
2023-02-11T10:56:28.207Z,8.99
2023-02-11T11:01:53.640Z,6.93
2023-02-11T11:07:28.986Z,5.60
2023-02-11T11:12:42.181Z,8.24
2023-02-11T11:17:46.375Z,7.72
2023-02-11T11:22:51.150Z,5.94
2023-02-11T11:28:00.715Z,6.57
2023-02-11T11:33:03.991Z,9.10
2023-02-11T11:38:07.159Z,7.18
2023-02-11T11:43:13.104Z,6.84
2023-02-11T11:48:31.450Z,9.57
2023-02-11T11:53:41.749Z,8.08
2023-02-11T11:58:44.760Z,6.31
2023-02-11T12:04:30.172Z,8.51
2023-02-11T12:10:08.044Z,9.06
2023-02-11T12:15:57.634Z,6.63
2023-02-11T12:21:35.930Z,7.21
2023-02-11T12:27:26.096Z,9.11
2023-02-11T12:32:37.838Z,6.88
2023-02-11T12:38:22.054Z,8.26
2023-02-11T12:43:38.569Z,8.90
2023-02-11T12:49:44.991Z,6.70
2023-02-11T12:55:04.774Z,8.33
2023-02-11T13:00:22.231Z,8.94
2023-02-11T13:05:37.964Z,6.89
2023-02-11T13:10:43.996Z,8.86
2023-02-11T13:16:23.083Z,9.11
2023-02-11T13:21:37.036Z,6.97
2023-02-11T13:26:47.617Z,8.99
2023-02-11T13:32:09.904Z,8.48
2023-02-11T13:37:37.797Z,6.92
2023-02-11T13:42:56.252Z,9.31
2023-02-11T13:48:02.602Z,8.41
2023-02-11T13:53:10.315Z,6.54
2023-02-11T13:58:33.098Z,8.65
2023-02-11T14:03:57.965Z,9.29
2023-02-11T14:09:09.686Z,6.91
2023-02-11T14:14:33.610Z,8.37
2023-02-11T14:19:43.967Z,9.48
2023-02-11T14:25:00.852Z,7.15
2023-02-11T14:30:30.142Z,7.60
2023-02-11T14:36:13.499Z,9.98
2023-02-11T14:41:30.648Z,7.53
2023-02-11T14:46:34.662Z,8.74
2023-02-11T14:51:40.893Z,9.61
2023-02-11T14:56:44.836Z,7.26
2023-02-11T15:01:52.294Z,8.70
2023-02-11T15:06:59.539Z,10.06
2023-02-11T15:12:03.498Z,7.75
2023-02-11T15:17:08.498Z,7.93
2023-02-11T15:22:26.014Z,10.45
2023-02-11T15:27:38.595Z,8.68
2023-02-11T15:32:45.267Z,7.36
2023-02-11T15:37:50.559Z,10.05
2023-02-11T15:43:13.944Z,9.36
2023-02-11T15:48:28.718Z,8.12
2023-02-11T15:53:41.082Z,10.51
2023-02-11T15:58:47.875Z,8.94
2023-02-11T16:03:50.933Z,7.62
2023-02-11T16:09:12.850Z,10.38
2023-02-11T16:14:31.307Z,9.36
2023-02-11T16:19:36.126Z,7.60
2023-02-11T16:24:39.579Z,10.10
2023-02-11T16:29:47.441Z,10.67
2023-02-11T16:34:51.398Z,8.31
2023-02-11T16:39:55.120Z,9.70
2023-02-11T16:44:58.113Z,10.25
2023-02-11T16:50:02.808Z,8.11
2023-02-11T16:55:06.401Z,9.76
2023-02-11T17:00:11.195Z,10.87
2023-02-11T17:05:22.981Z,8.60
2023-02-11T17:10:25.918Z,8.01
2023-02-11T17:15:28.942Z,10.78
2023-02-11T17:20:31.809Z,9.93
2023-02-11T17:25:37.272Z,7.74
2023-02-11T17:30:43.569Z,8.89
2023-02-11T17:35:46.542Z,11.20
2023-02-11T17:40:58.882Z,9.31
2023-02-11T17:46:01.790Z,8.58
2023-02-11T17:51:26.910Z,10.99
2023-02-11T17:56:33.264Z,9.21
2023-02-11T18:01:38.638Z,8.70
2023-02-11T18:06:41.555Z,11.17
2023-02-11T18:11:44.579Z,9.72
2023-02-11T18:16:53.007Z,7.96
2023-02-11T18:21:55.917Z,10.35
2023-02-11T18:26:59.004Z,11.35
2023-02-11T18:32:01.923Z,8.98
2023-02-11T18:37:04.755Z,8.66
2023-02-11T18:42:07.592Z,11.24
2023-02-11T18:47:10.409Z,9.81
2023-02-11T18:52:13.226Z,8.68
2023-02-11T18:57:16.023Z,11.18
2023-02-11T19:02:18.916Z,10.22
2023-02-11T19:07:21.744Z,8.10
2023-02-11T19:12:24.835Z,9.92
2023-02-11T19:17:27.779Z,11.73
2023-02-11T19:22:30.625Z,9.80
2023-02-11T19:27:33.860Z,8.50
2023-02-11T19:32:36.871Z,11.05
2023-02-11T19:37:39.698Z,11.20
2023-02-11T19:42:42.828Z,8.97
2023-02-11T19:47:45.654Z,10.48
2023-02-11T19:52:48.530Z,11.34
2023-02-11T19:57:51.354Z,9.07
2023-02-11T20:02:54.281Z,8.96
2023-02-11T20:07:58.155Z,11.70
2023-02-11T20:13:00.932Z,11.07
2023-02-11T20:18:03.955Z,8.75
2023-02-11T20:23:06.770Z,7.98
2023-02-11T20:28:09.613Z,10.82
2023-02-11T20:33:12.445Z,12.18
2023-02-11T20:38:15.272Z,10.25
2023-02-11T20:43:19.082Z,8.51
2023-02-11T20:48:21.787Z,10.52
2023-02-11T20:53:24.627Z,11.81
2023-02-11T20:58:27.469Z,9.64
2023-02-11T21:03:30.339Z,9.15
2023-02-11T21:08:33.237Z,11.38
2023-02-11T21:13:37.527Z,11.47
2023-02-11T21:18:40.558Z,9.22
2023-02-11T21:23:43.707Z,8.40
2023-02-11T21:28:46.605Z,11.06
2023-02-11T21:33:50.940Z,11.57
2023-02-11T21:38:53.906Z,9.24
2023-02-11T21:43:57.732Z,9.06
2023-02-11T21:49:00.606Z,11.81
2023-02-11T21:54:03.982Z,10.95
2023-02-11T21:59:06.853Z,8.73
2023-02-11T22:04:09.824Z,8.90
2023-02-11T22:09:13.004Z,11.91
2023-02-11T22:14:16.449Z,11.31
2023-02-11T22:19:19.304Z,8.99
2023-02-11T22:24:22.139Z,9.07
2023-02-11T22:29:24.944Z,12.03
2023-02-11T22:34:27.805Z,11.98
2023-02-11T22:39:30.991Z,9.41
2023-02-11T22:44:33.808Z,7.86
2023-02-11T22:49:39.591Z,9.49
2023-02-11T22:54:42.491Z,11.63
2023-02-11T22:59:45.395Z,10.10
2023-02-11T23:04:49.926Z,8.47
2023-02-11T23:09:52.846Z,10.59
2023-02-11T23:14:55.650Z,11.41
2023-02-11T23:19:58.509Z,9.30
2023-02-11T23:25:01.371Z,7.99
2023-02-11T23:30:05.253Z,10.25
2023-02-11T23:35:08.370Z,12.01
2023-02-11T23:40:11.915Z,11.03
2023-02-11T23:45:15.434Z,8.94
2023-02-11T23:50:18.587Z,7.98
2023-02-11T23:55:21.517Z,10.22
